Davenport, IA

1:49 AM CST on December 18, 2014 (GMT -0600)
Davenport Municipal | Change Station
CLOSE
Current Station
Airport
Location: Davenport,
Elevation: 755 ft
Nearby Weather Stations

Elev 755 ft 41.61 °N, 90.59 °W | Updated 57 minutes ago

Partly Cloudy
Partly Cloudy
14 °F
Feels Like 4 °F
N
7
Wind Variable Wind from NNE

Today
High -- | Low -- °F
--% Chance of Precip.
Yesterday
High -- | Low -- °F
Precip. -- in
7:24 AM 4:33 PM
Waning Crescent, 16% visible
Pressure 30.32 in
Visibility 10.0 miles
Clouds Clear
Windchill 4 °F
Dew Point 10 °F
Humidity 84%
Rainfall 0.00 in
Snow Depth Not available.
UV 0 out of 12
Pollen .10 out of 12
Air Quality Not available.
Flu Activity Not available.
METAR KDVN 180652Z AUTO 03006KT 10SM CLR M10/M12 A3028 RMK AO2 SLP266 T11001122

More Conditions Fewer Conditions

Pressure 30.32 in
Visibility 10.0 miles
Clouds Clear
Windchill 4 °F
Dew Point 10 °F
Humidity 84%
Rainfall 0.00 in
Snow Depth Not available.
UV 0 out of 12
Pollen .10 out of 12
Air Quality Not available.
Flu Activity Not available.
METAR KDVN 180652Z AUTO 03006KT 10SM CLR M10/M12 A3028 RMK AO2 SLP266 T11001122

More Conditions Fewer Conditions

10-Day Weather Forecast

Almanac

Astronomy

Dec. 18, 2014 Rise Set
Actual Time
Civil Twilight
Nautical Twilight
Astronomical Twilight
Moon
Length of Visible Light
Length of Day
Tomorrow will be .
, % of the Moon is Illuminated

Today's Extremes

State Highs State Lows

Community

WunderPhotos

Upload Photos

1,778,900 photos uploaded!

WunderBlogs® & News

Nearby

Air Quality

  Air Quality AQ Index Pollutant
Not available.

Snow Depth

Station Depth Elevation

Earthquake Activity

City Distance Mag. Time & Date
Minimum magnitude displayed is 2.5.

Coastal Water Temperatures

Place Temperature

Nearby Weather Stations